sensor_id;sensor_type;location;lat;lon;timestamp;temperature;humidity
2489;DHT22;1255;48.716;9.124;2023-05-14T00:01:03;11.20;99.90
2489;DHT22;1255;48.716;9.124;2023-05-14T00:03:30;11.20;99.90
2489;DHT22;1255;48.716;9.124;2023-05-14T00:05:57;11.20;99.90
2489;DHT22;1255;48.716;9.124;2023-05-14T00:08:23;11.20;99.90
2489;DHT22;1255;48.716;9.124;2023-05-14T00:10:51;11.20;99.90
2489;DHT22;1255;48.716;9.124;2023-05-14T00:13:19;11.20;99.90
2489;DHT22;1255;48.716;9.124;2023-05-14T00:15:46;11.20;99.90
2489;DHT22;1255;48.716;9.124;2023-05-14T00:18:12;11.10;99.90
2489;DHT22;1255;48.716;9.124;2023-05-14T00:20:39;11.10;99.90
2489;DHT22;1255;48.716;9.124;2023-05-14T00:23:06;11.10;99.90
2489;DHT22;1255;48.716;9.124;2023-05-14T00:25:33;11.10;99.90
2489;DHT22;1255;48.716;9.124;2023-05-14T00:28:00;11.10;99.90
2489;DHT22;1255;48.716;9.124;2023-05-14T00:30:28;11.10;99.90
2489;DHT22;1255;48.716;9.124;2023-05-14T00:32:55;11.00;99.90
2489;DHT22;1255;48.716;9.124;2023-05-14T00:35:22;11.10;99.90
2489;DHT22;1255;48.716;9.124;2023-05-14T00:37:48;11.10;99.90
2489;DHT22;1255;48.716;9.124;2023-05-14T00:40:15;11.00;99.90
2489;DHT22;1255;48.716;9.124;2023-05-14T00:42:42;11.00;99.90
2489;DHT22;1255;48.716;9.124;2023-05-14T00:45:09;11.00;99.90
2489;DHT22;1255;48.716;9.124;2023-05-14T00:47:37;11.00;99.90
2489;DHT22;1255;48.716;9.124;2023-05-14T00:50:05;11.00;99.90
2489;DHT22;1255;48.716;9.124;2023-05-14T00:52:32;11.10;99.90
2489;DHT22;1255;48.716;9.124;2023-05-14T00:54:59;11.00;99.90
2489;DHT22;1255;48.716;9.124;2023-05-14T00:57:28;11.00;99.90
2489;DHT22;1255;48.716;9.124;2023-05-14T00:59:55;11.00;99.90
2489;DHT22;1255;48.716;9.124;2023-05-14T01:02:22;11.00;99.90
2489;DHT22;1255;48.716;9.124;2023-05-14T01:04:50;11.00;99.90
2489;DHT22;1255;48.716;9.124;2023-05-14T01:07:22;11.00;99.90
2489;DHT22;1255;48.716;9.124;2023-05-14T01:09:55;11.00;99.90
2489;DHT22;1255;48.716;9.124;2023-05-14T01:12:28;11.00;99.90
2489;DHT22;1255;48.716;9.124;2023-05-14T01:15:01;11.00;99.90
2489;DHT22;1255;48.716;9.124;2023-05-14T01:17:32;11.00;99.90
2489;DHT22;1255;48.716;9.124;2023-05-14T01:20:01;11.00;99.90
2489;DHT22;1255;48.716;9.124;2023-05-14T01:22:30;11.00;99.90
2489;DHT22;1255;48.716;9.124;2023-05-14T01:24:56;10.90;99.90
2489;DHT22;1255;48.716;9.124;2023-05-14T01:27:30;11.00;99.90
2489;DHT22;1255;48.716;9.124;2023-05-14T01:30:07;11.00;99.90
2489;DHT22;1255;48.716;9.124;2023-05-14T01:32:35;10.90;99.90
2489;DHT22;1255;48.716;9.124;2023-05-14T01:35:03;10.90;99.90
2489;DHT22;1255;48.716;9.124;2023-05-14T01:37:31;10.90;99.90
2489;DHT22;1255;48.716;9.124;2023-05-14T01:39:59;10.80;99.90
2489;DHT22;1255;48.716;9.124;2023-05-14T01:42:27;10.80;99.90
2489;DHT22;1255;48.716;9.124;2023-05-14T01:44:54;10.70;99.90
2489;DHT22;1255;48.716;9.124;2023-05-14T01:47:21;10.60;99.90
2489;DHT22;1255;48.716;9.124;2023-05-14T01:49:47;10.50;99.90
2489;DHT22;1255;48.716;9.124;2023-05-14T01:52:14;10.40;99.90
2489;DHT22;1255;48.716;9.124;2023-05-14T01:54:42;10.30;99.90
2489;DHT22;1255;48.716;9.124;2023-05-14T01:57:09;10.20;99.90
2489;DHT22;1255;48.716;9.124;2023-05-14T01:59:36;10.10;99.90
2489;DHT22;1255;48.716;9.124;2023-05-14T02:02:02;10.10;99.90
2489;DHT22;1255;48.716;9.124;2023-05-14T02:04:29;10.00;99.90
2489;DHT22;1255;48.716;9.124;2023-05-14T02:06:56;9.90;99.90
2489;DHT22;1255;48.716;9.124;2023-05-14T02:09:23;9.90;99.90
2489;DHT22;1255;48.716;9.124;2023-05-14T02:11:51;9.80;99.90
2489;DHT22;1255;48.716;9.124;2023-05-14T02:14:17;9.80;99.90
2489;DHT22;1255;48.716;9.124;2023-05-14T02:16:44;9.80;99.90
2489;DHT22;1255;48.716;9.124;2023-05-14T02:19:11;9.70;99.90
2489;DHT22;1255;48.716;9.124;2023-05-14T02:21:37;9.70;99.90
2489;DHT22;1255;48.716;9.124;2023-05-14T02:24:04;9.60;99.90
2489;DHT22;1255;48.716;9.124;2023-05-14T02:26:31;9.60;99.90
2489;DHT22;1255;48.716;9.124;2023-05-14T02:28:59;9.50;99.90
2489;DHT22;1255;48.716;9.124;2023-05-14T02:31:25;9.50;99.90
2489;DHT22;1255;48.716;9.124;2023-05-14T02:33:52;9.40;99.90
2489;DHT22;1255;48.716;9.124;2023-05-14T02:36:19;9.40;99.90
2489;DHT22;1255;48.716;9.124;2023-05-14T02:38:45;9.40;99.90
2489;DHT22;1255;48.716;9.124;2023-05-14T02:41:12;9.40;99.90
2489;DHT22;1255;48.716;9.124;2023-05-14T02:43:39;9.50;99.90
2489;DHT22;1255;48.716;9.124;2023-05-14T02:46:07;9.50;99.90
2489;DHT22;1255;48.716;9.124;2023-05-14T02:48:33;9.60;99.90
2489;DHT22;1255;48.716;9.124;2023-05-14T02:51:00;9.60;99.90
2489;DHT22;1255;48.716;9.124;2023-05-14T02:53:27;9.60;99.90
2489;DHT22;1255;48.716;9.124;2023-05-14T02:55:54;9.60;99.90
2489;DHT22;1255;48.716;9.124;2023-05-14T02:58:20;9.70;99.90
2489;DHT22;1255;48.716;9.124;2023-05-14T03:00:47;9.70;99.90
2489;DHT22;1255;48.716;9.124;2023-05-14T03:03:15;9.70;99.90
2489;DHT22;1255;48.716;9.124;2023-05-14T03:05:42;9.80;99.90
2489;DHT22;1255;48.716;9.124;2023-05-14T03:08:08;9.80;99.90
2489;DHT22;1255;48.716;9.124;2023-05-14T03:10:35;9.80;99.90
2489;DHT22;1255;48.716;9.124;2023-05-14T03:13:02;9.70;99.90
2489;DHT22;1255;48.716;9.124;2023-05-14T03:15:28;9.80;99.90
2489;DHT22;1255;48.716;9.124;2023-05-14T03:17:55;9.80;99.90
2489;DHT22;1255;48.716;9.124;2023-05-14T03:20:23;9.80;99.90
2489;DHT22;1255;48.716;9.124;2023-05-14T03:22:51;9.80;99.90
2489;DHT22;1255;48.716;9.124;2023-05-14T03:25:17;9.90;99.90
2489;DHT22;1255;48.716;9.124;2023-05-14T03:27:44;9.90;99.90
2489;DHT22;1255;48.716;9.124;2023-05-14T03:30:11;9.90;99.90
2489;DHT22;1255;48.716;9.124;2023-05-14T03:32:38;9.90;99.90
2489;DHT22;1255;48.716;9.124;2023-05-14T03:35:06;10.00;99.90
2489;DHT22;1255;48.716;9.124;2023-05-14T03:37:34;9.90;99.90
2489;DHT22;1255;48.716;9.124;2023-05-14T03:40:01;10.00;99.90
2489;DHT22;1255;48.716;9.124;2023-05-14T03:42:28;10.00;99.90
2489;DHT22;1255;48.716;9.124;2023-05-14T03:44:54;10.10;99.90
2489;DHT22;1255;48.716;9.124;2023-05-14T03:47:21;10.10;99.90
2489;DHT22;1255;48.716;9.124;2023-05-14T03:49:48;10.10;99.90
2489;DHT22;1255;48.716;9.124;2023-05-14T03:52:15;10.10;99.90
2489;DHT22;1255;48.716;9.124;2023-05-14T03:54:43;10.10;99.90
2489;DHT22;1255;48.716;9.124;2023-05-14T03:57:09;10.10;99.90
2489;DHT22;1255;48.716;9.124;2023-05-14T03:59:36;10.10;99.90
2489;DHT22;1255;48.716;9.124;2023-05-14T04:02:03;10.10;99.90
2489;DHT22;1255;48.716;9.124;2023-05-14T04:04:30;10.10;99.90
2489;DHT22;1255;48.716;9.124;2023-05-14T04:06:57;10.10;99.90
2489;DHT22;1255;48.716;9.124;2023-05-14T04:09:23;10.20;99.90
2489;DHT22;1255;48.716;9.124;2023-05-14T04:11:51;10.10;99.90
2489;DHT22;1255;48.716;9.124;2023-05-14T04:14:18;10.10;99.90
2489;DHT22;1255;48.716;9.124;2023-05-14T04:16:44;10.20;99.90
2489;DHT22;1255;48.716;9.124;2023-05-14T04:19:11;10.10;99.90
2489;DHT22;1255;48.716;9.124;2023-05-14T04:21:38;10.20;99.90
2489;DHT22;1255;48.716;9.124;2023-05-14T04:24:05;10.20;99.90
2489;DHT22;1255;48.716;9.124;2023-05-14T04:26:32;10.20;99.90
2489;DHT22;1255;48.716;9.124;2023-05-14T04:29:01;10.20;99.90
2489;DHT22;1255;48.716;9.124;2023-05-14T04:31:27;10.20;99.90
2489;DHT22;1255;48.716;9.124;2023-05-14T04:33:54;10.30;99.90
2489;DHT22;1255;48.716;9.124;2023-05-14T04:36:21;10.30;99.90
2489;DHT22;1255;48.716;9.124;2023-05-14T04:38:47;10.30;99.90
2489;DHT22;1255;48.716;9.124;2023-05-14T04:41:14;10.30;99.90
2489;DHT22;1255;48.716;9.124;2023-05-14T04:43:41;10.30;99.90
2489;DHT22;1255;48.716;9.124;2023-05-14T04:46:10;10.30;99.90
2489;DHT22;1255;48.716;9.124;2023-05-14T04:48:36;10.40;99.90
2489;DHT22;1255;48.716;9.124;2023-05-14T04:51:03;10.40;99.90
2489;DHT22;1255;48.716;9.124;2023-05-14T04:53:30;10.40;99.90
2489;DHT22;1255;48.716;9.124;2023-05-14T04:55:56;10.40;99.90
2489;DHT22;1255;48.716;9.124;2023-05-14T04:58:23;10.40;99.90
2489;DHT22;1255;48.716;9.124;2023-05-14T05:00:53;10.40;99.90
2489;DHT22;1255;48.716;9.124;2023-05-14T05:03:21;10.40;99.90
2489;DHT22;1255;48.716;9.124;2023-05-14T05:05:47;10.40;99.90
2489;DHT22;1255;48.716;9.124;2023-05-14T05:08:14;10.40;99.90
2489;DHT22;1255;48.716;9.124;2023-05-14T05:10:41;10.50;99.90
2489;DHT22;1255;48.716;9.124;2023-05-14T05:13:07;10.40;99.90
2489;DHT22;1255;48.716;9.124;2023-05-14T05:15:34;10.40;99.90
2489;DHT22;1255;48.716;9.124;2023-05-14T05:18:01;10.50;99.90
2489;DHT22;1255;48.716;9.124;2023-05-14T05:20:29;10.50;99.90
2489;DHT22;1255;48.716;9.124;2023-05-14T05:22:56;10.50;99.90
2489;DHT22;1255;48.716;9.124;2023-05-14T05:25:24;10.50;99.90
2489;DHT22;1255;48.716;9.124;2023-05-14T05:27:50;10.50;99.90
2489;DHT22;1255;48.716;9.124;2023-05-14T05:30:17;10.60;99.90
2489;DHT22;1255;48.716;9.124;2023-05-14T05:32:44;10.50;99.90
2489;DHT22;1255;48.716;9.124;2023-05-14T05:35:10;10.60;99.90
2489;DHT22;1255;48.716;9.124;2023-05-14T05:37:38;10.60;99.90
2489;DHT22;1255;48.716;9.124;2023-05-14T05:40:07;10.60;99.90
2489;DHT22;1255;48.716;9.124;2023-05-14T05:42:34;10.60;99.90
2489;DHT22;1255;48.716;9.124;2023-05-14T05:45:01;10.70;99.90
2489;DHT22;1255;48.716;9.124;2023-05-14T05:47:28;10.70;99.90
2489;DHT22;1255;48.716;9.124;2023-05-14T05:49:54;10.70;99.90
2489;DHT22;1255;48.716;9.124;2023-05-14T05:52:21;10.70;99.90
2489;DHT22;1255;48.716;9.124;2023-05-14T05:54:49;10.70;99.90
2489;DHT22;1255;48.716;9.124;2023-05-14T05:57:16;10.70;99.90
2489;DHT22;1255;48.716;9.124;2023-05-14T05:59:42;10.70;99.90
2489;DHT22;1255;48.716;9.124;2023-05-14T06:02:09;10.70;99.90
2489;DHT22;1255;48.716;9.124;2023-05-14T06:04:35;10.80;99.90
2489;DHT22;1255;48.716;9.124;2023-05-14T06:07:02;10.80;99.90
2489;DHT22;1255;48.716;9.124;2023-05-14T06:09:29;10.90;99.90
2489;DHT22;1255;48.716;9.124;2023-05-14T06:11:57;11.00;99.90
2489;DHT22;1255;48.716;9.124;2023-05-14T06:14:24;11.00;99.90
2489;DHT22;1255;48.716;9.124;2023-05-14T06:16:50;11.10;99.90
2489;DHT22;1255;48.716;9.124;2023-05-14T06:19:17;11.10;99.90
2489;DHT22;1255;48.716;9.124;2023-05-14T06:21:44;11.20;99.90
2489;DHT22;1255;48.716;9.124;2023-05-14T06:24:10;11.20;99.90
2489;DHT22;1255;48.716;9.124;2023-05-14T06:26:37;11.20;99.90
2489;DHT22;1255;48.716;9.124;2023-05-14T06:29:05;11.30;99.90
2489;DHT22;1255;48.716;9.124;2023-05-14T06:31:32;11.30;99.90
2489;DHT22;1255;48.716;9.124;2023-05-14T06:33:59;11.30;99.90
2489;DHT22;1255;48.716;9.124;2023-05-14T06:36:25;11.30;99.90
2489;DHT22;1255;48.716;9.124;2023-05-14T06:38:52;11.30;99.90
2489;DHT22;1255;48.716;9.124;2023-05-14T06:41:19;11.30;99.90
2489;DHT22;1255;48.716;9.124;2023-05-14T06:43:45;11.40;99.90
2489;DHT22;1255;48.716;9.124;2023-05-14T06:46:13;11.50;99.90
2489;DHT22;1255;48.716;9.124;2023-05-14T06:48:40;11.60;99.90
2489;DHT22;1255;48.716;9.124;2023-05-14T06:51:07;11.70;99.90
2489;DHT22;1255;48.716;9.124;2023-05-14T06:53:35;11.70;99.90
2489;DHT22;1255;48.716;9.124;2023-05-14T06:56:02;11.80;99.90
2489;DHT22;1255;48.716;9.124;2023-05-14T06:58:28;11.90;99.90
2489;DHT22;1255;48.716;9.124;2023-05-14T07:00:55;12.00;99.90
2489;DHT22;1255;48.716;9.124;2023-05-14T07:03:23;12.10;99.90
2489;DHT22;1255;48.716;9.124;2023-05-14T07:05:50;12.20;99.90
2489;DHT22;1255;48.716;9.124;2023-05-14T07:08:16;12.30;99.90
2489;DHT22;1255;48.716;9.124;2023-05-14T07:10:43;12.40;99.90
2489;DHT22;1255;48.716;9.124;2023-05-14T07:13:10;12.40;99.90
2489;DHT22;1255;48.716;9.124;2023-05-14T07:15:36;12.40;99.90
2489;DHT22;1255;48.716;9.124;2023-05-14T07:18:03;12.50;99.90
2489;DHT22;1255;48.716;9.124;2023-05-14T07:20:31;12.50;99.90
2489;DHT22;1255;48.716;9.124;2023-05-14T07:22:58;12.50;99.90
2489;DHT22;1255;48.716;9.124;2023-05-14T07:25:24;12.50;99.90
2489;DHT22;1255;48.716;9.124;2023-05-14T07:27:51;12.50;99.90
2489;DHT22;1255;48.716;9.124;2023-05-14T07:30:18;12.60;99.90
2489;DHT22;1255;48.716;9.124;2023-05-14T07:32:45;12.70;99.90
2489;DHT22;1255;48.716;9.124;2023-05-14T07:35:11;12.80;99.90
2489;DHT22;1255;48.716;9.124;2023-05-14T07:37:39;12.80;99.90
2489;DHT22;1255;48.716;9.124;2023-05-14T07:40:08;12.90;99.90
2489;DHT22;1255;48.716;9.124;2023-05-14T07:42:34;13.00;99.90
2489;DHT22;1255;48.716;9.124;2023-05-14T07:45:01;13.00;99.90
2489;DHT22;1255;48.716;9.124;2023-05-14T07:47:29;13.10;99.90
2489;DHT22;1255;48.716;9.124;2023-05-14T07:49:55;13.20;99.90
2489;DHT22;1255;48.716;9.124;2023-05-14T07:52:22;13.30;99.90
2489;DHT22;1255;48.716;9.124;2023-05-14T07:54:51;13.40;99.90
2489;DHT22;1255;48.716;9.124;2023-05-14T07:57:18;13.50;99.90
2489;DHT22;1255;48.716;9.124;2023-05-14T07:59:46;13.60;99.90
2489;DHT22;1255;48.716;9.124;2023-05-14T08:02:13;13.70;99.90
2489;DHT22;1255;48.716;9.124;2023-05-14T08:04:40;13.90;99.90
2489;DHT22;1255;48.716;9.124;2023-05-14T08:07:08;14.00;99.90
2489;DHT22;1255;48.716;9.124;2023-05-14T08:09:35;14.20;99.90
2489;DHT22;1255;48.716;9.124;2023-05-14T08:12:05;14.40;99.90
2489;DHT22;1255;48.716;9.124;2023-05-14T08:14:33;14.40;99.90
2489;DHT22;1255;48.716;9.124;2023-05-14T08:17:00;14.50;99.90
2489;DHT22;1255;48.716;9.124;2023-05-14T08:19:28;14.60;99.90
2489;DHT22;1255;48.716;9.124;2023-05-14T08:21:55;14.70;99.90
2489;DHT22;1255;48.716;9.124;2023-05-14T08:24:22;14.90;99.90
2489;DHT22;1255;48.716;9.124;2023-05-14T08:26:49;15.00;99.90
2489;DHT22;1255;48.716;9.124;2023-05-14T08:29:18;15.00;99.90
2489;DHT22;1255;48.716;9.124;2023-05-14T08:31:45;15.10;99.90
2489;DHT22;1255;48.716;9.124;2023-05-14T08:34:11;15.20;99.90
2489;DHT22;1255;48.716;9.124;2023-05-14T08:36:38;15.40;99.90
2489;DHT22;1255;48.716;9.124;2023-05-14T08:39:05;15.60;99.90
2489;DHT22;1255;48.716;9.124;2023-05-14T08:41:33;15.70;99.90
2489;DHT22;1255;48.716;9.124;2023-05-14T08:44:05;15.90;99.90
2489;DHT22;1255;48.716;9.124;2023-05-14T08:46:35;15.90;99.90
2489;DHT22;1255;48.716;9.124;2023-05-14T08:49:10;16.10;99.90
2489;DHT22;1255;48.716;9.124;2023-05-14T08:51:40;16.10;99.90
2489;DHT22;1255;48.716;9.124;2023-05-14T08:54:08;16.20;99.90
2489;DHT22;1255;48.716;9.124;2023-05-14T08:56:37;16.50;99.90
2489;DHT22;1255;48.716;9.124;2023-05-14T08:59:04;16.90;99.90
2489;DHT22;1255;48.716;9.124;2023-05-14T09:01:31;17.10;99.90
2489;DHT22;1255;48.716;9.124;2023-05-14T09:03:59;17.30;99.90
2489;DHT22;1255;48.716;9.124;2023-05-14T09:06:31;17.60;99.90
2489;DHT22;1255;48.716;9.124;2023-05-14T09:08:58;18.10;99.90
2489;DHT22;1255;48.716;9.124;2023-05-14T09:11:25;18.40;99.90
2489;DHT22;1255;48.716;9.124;2023-05-14T09:13:52;18.60;99.90
2489;DHT22;1255;48.716;9.124;2023-05-14T09:16:19;19.00;99.90
2489;DHT22;1255;48.716;9.124;2023-05-14T09:18:46;19.10;99.90
2489;DHT22;1255;48.716;9.124;2023-05-14T09:21:15;18.90;99.90
2489;DHT22;1255;48.716;9.124;2023-05-14T09:23:43;18.70;99.90
2489;DHT22;1255;48.716;9.124;2023-05-14T09:26:16;18.40;99.90
2489;DHT22;1255;48.716;9.124;2023-05-14T09:28:42;18.20;99.90
2489;DHT22;1255;48.716;9.124;2023-05-14T09:31:09;18.10;99.90
2489;DHT22;1255;48.716;9.124;2023-05-14T09:33:36;18.00;99.90
2489;DHT22;1255;48.716;9.124;2023-05-14T09:36:03;18.30;99.90
2489;DHT22;1255;48.716;9.124;2023-05-14T09:38:32;18.90;99.90
2489;DHT22;1255;48.716;9.124;2023-05-14T09:40:59;19.10;99.90
2489;DHT22;1255;48.716;9.124;2023-05-14T09:43:26;19.10;99.90
2489;DHT22;1255;48.716;9.124;2023-05-14T09:45:52;19.00;99.90
2489;DHT22;1255;48.716;9.124;2023-05-14T09:48:19;18.60;99.90
2489;DHT22;1255;48.716;9.124;2023-05-14T09:50:47;18.20;99.90
2489;DHT22;1255;48.716;9.124;2023-05-14T09:53:14;18.00;99.90
2489;DHT22;1255;48.716;9.124;2023-05-14T09:55:44;17.80;99.90
2489;DHT22;1255;48.716;9.124;2023-05-14T09:58:10;18.00;99.90
2489;DHT22;1255;48.716;9.124;2023-05-14T10:00:39;18.10;99.90
2489;DHT22;1255;48.716;9.124;2023-05-14T10:03:12;18.30;99.90
2489;DHT22;1255;48.716;9.124;2023-05-14T10:05:40;18.50;99.90
2489;DHT22;1255;48.716;9.124;2023-05-14T10:08:11;18.80;99.90
2489;DHT22;1255;48.716;9.124;2023-05-14T10:10:39;18.80;99.90
2489;DHT22;1255;48.716;9.124;2023-05-14T10:13:13;18.60;99.90
2489;DHT22;1255;48.716;9.124;2023-05-14T10:15:51;18.20;99.90
2489;DHT22;1255;48.716;9.124;2023-05-14T10:18:23;18.00;99.90
2489;DHT22;1255;48.716;9.124;2023-05-14T10:20:56;17.90;99.90
2489;DHT22;1255;48.716;9.124;2023-05-14T10:23:26;17.80;99.90
2489;DHT22;1255;48.716;9.124;2023-05-14T10:25:53;17.70;99.90
2489;DHT22;1255;48.716;9.124;2023-05-14T10:28:21;17.70;99.90
2489;DHT22;1255;48.716;9.124;2023-05-14T10:30:48;17.90;99.90
2489;DHT22;1255;48.716;9.124;2023-05-14T10:33:15;17.90;99.90
2489;DHT22;1255;48.716;9.124;2023-05-14T10:36:00;18.10;99.90
2489;DHT22;1255;48.716;9.124;2023-05-14T10:38:27;18.20;99.90
2489;DHT22;1255;48.716;9.124;2023-05-14T10:40:59;18.20;99.90
2489;DHT22;1255;48.716;9.124;2023-05-14T10:43:28;18.20;99.90
2489;DHT22;1255;48.716;9.124;2023-05-14T10:45:56;18.10;99.90
2489;DHT22;1255;48.716;9.124;2023-05-14T10:48:23;18.20;99.90
2489;DHT22;1255;48.716;9.124;2023-05-14T10:50:51;18.30;99.90
2489;DHT22;1255;48.716;9.124;2023-05-14T10:53:18;18.50;99.90
2489;DHT22;1255;48.716;9.124;2023-05-14T10:55:46;18.70;99.90
2489;DHT22;1255;48.716;9.124;2023-05-14T10:58:14;19.10;99.90
2489;DHT22;1255;48.716;9.124;2023-05-14T11:00:42;19.30;99.90
2489;DHT22;1255;48.716;9.124;2023-05-14T11:03:12;19.80;99.90
2489;DHT22;1255;48.716;9.124;2023-05-14T11:05:40;20.50;99.90
2489;DHT22;1255;48.716;9.124;2023-05-14T11:08:07;21.10;99.90
2489;DHT22;1255;48.716;9.124;2023-05-14T11:10:34;21.10;99.90
2489;DHT22;1255;48.716;9.124;2023-05-14T11:13:01;21.20;99.90
2489;DHT22;1255;48.716;9.124;2023-05-14T11:15:28;21.60;99.90
2489;DHT22;1255;48.716;9.124;2023-05-14T11:17:56;21.40;99.90
2489;DHT22;1255;48.716;9.124;2023-05-14T11:20:22;21.10;99.90
2489;DHT22;1255;48.716;9.124;2023-05-14T11:22:49;20.80;99.90
2489;DHT22;1255;48.716;9.124;2023-05-14T11:25:16;20.10;99.90
2489;DHT22;1255;48.716;9.124;2023-05-14T11:27:45;19.70;99.90
2489;DHT22;1255;48.716;9.124;2023-05-14T11:30:13;20.00;99.90
2489;DHT22;1255;48.716;9.124;2023-05-14T11:32:42;21.00;99.90
2489;DHT22;1255;48.716;9.124;2023-05-14T11:35:11;21.90;99.90
2489;DHT22;1255;48.716;9.124;2023-05-14T11:37:38;22.30;99.90
2489;DHT22;1255;48.716;9.124;2023-05-14T11:40:07;22.10;99.90
2489;DHT22;1255;48.716;9.124;2023-05-14T11:42:36;21.90;99.90
2489;DHT22;1255;48.716;9.124;2023-05-14T11:45:03;21.40;99.90
2489;DHT22;1255;48.716;9.124;2023-05-14T11:47:30;20.70;99.90
2489;DHT22;1255;48.716;9.124;2023-05-14T11:49:58;20.00;99.90
2489;DHT22;1255;48.716;9.124;2023-05-14T11:52:26;19.50;99.90
2489;DHT22;1255;48.716;9.124;2023-05-14T11:54:53;19.10;99.90
2489;DHT22;1255;48.716;9.124;2023-05-14T11:57:21;18.90;99.90
2489;DHT22;1255;48.716;9.124;2023-05-14T11:59:53;18.80;99.90
2489;DHT22;1255;48.716;9.124;2023-05-14T12:02:21;19.60;99.90
2489;DHT22;1255;48.716;9.124;2023-05-14T12:04:49;20.70;99.90
2489;DHT22;1255;48.716;9.124;2023-05-14T12:07:16;21.80;99.90
2489;DHT22;1255;48.716;9.124;2023-05-14T12:09:46;23.10;99.90
2489;DHT22;1255;48.716;9.124;2023-05-14T12:12:15;24.10;99.90
2489;DHT22;1255;48.716;9.124;2023-05-14T12:14:43;24.60;99.90
2489;DHT22;1255;48.716;9.124;2023-05-14T12:17:12;25.20;99.90
2489;DHT22;1255;48.716;9.124;2023-05-14T12:19:39;25.30;99.90
2489;DHT22;1255;48.716;9.124;2023-05-14T12:22:07;24.10;99.90
2489;DHT22;1255;48.716;9.124;2023-05-14T12:24:34;23.10;99.90
2489;DHT22;1255;48.716;9.124;2023-05-14T12:27:02;21.90;99.90
2489;DHT22;1255;48.716;9.124;2023-05-14T12:29:29;21.10;99.90
2489;DHT22;1255;48.716;9.124;2023-05-14T12:31:57;20.40;99.90
2489;DHT22;1255;48.716;9.124;2023-05-14T12:34:24;19.90;99.90
2489;DHT22;1255;48.716;9.124;2023-05-14T12:36:51;19.50;99.90
2489;DHT22;1255;48.716;9.124;2023-05-14T12:39:18;19.30;99.90
2489;DHT22;1255;48.716;9.124;2023-05-14T12:41:45;19.20;99.90
2489;DHT22;1255;48.716;9.124;2023-05-14T12:44:14;19.00;99.90
2489;DHT22;1255;48.716;9.124;2023-05-14T12:46:42;18.90;99.90
2489;DHT22;1255;48.716;9.124;2023-05-14T12:49:09;18.80;99.90
2489;DHT22;1255;48.716;9.124;2023-05-14T12:51:36;18.70;99.90
2489;DHT22;1255;48.716;9.124;2023-05-14T12:54:03;18.50;99.90
2489;DHT22;1255;48.716;9.124;2023-05-14T12:56:30;18.40;99.90
2489;DHT22;1255;48.716;9.124;2023-05-14T12:58:57;18.30;99.90
2489;DHT22;1255;48.716;9.124;2023-05-14T13:01:25;18.40;99.90
2489;DHT22;1255;48.716;9.124;2023-05-14T13:03:51;18.50;99.90
2489;DHT22;1255;48.716;9.124;2023-05-14T13:06:19;18.80;99.90
2489;DHT22;1255;48.716;9.124;2023-05-14T13:08:46;19.40;99.90
2489;DHT22;1255;48.716;9.124;2023-05-14T13:11:13;20.00;99.90
2489;DHT22;1255;48.716;9.124;2023-05-14T13:13:40;20.60;99.90
2489;DHT22;1255;48.716;9.124;2023-05-14T13:16:07;20.70;99.90
2489;DHT22;1255;48.716;9.124;2023-05-14T13:18:35;20.60;99.90
2489;DHT22;1255;48.716;9.124;2023-05-14T13:21:02;20.30;99.90
2489;DHT22;1255;48.716;9.124;2023-05-14T13:23:30;20.20;99.90
2489;DHT22;1255;48.716;9.124;2023-05-14T13:25:57;20.40;99.90
2489;DHT22;1255;48.716;9.124;2023-05-14T13:28:24;20.50;99.90
2489;DHT22;1255;48.716;9.124;2023-05-14T13:31:04;20.70;99.90
2489;DHT22;1255;48.716;9.124;2023-05-14T13:33:33;21.30;99.90
2489;DHT22;1255;48.716;9.124;2023-05-14T13:36:01;21.80;99.90
2489;DHT22;1255;48.716;9.124;2023-05-14T13:38:28;22.00;99.90
2489;DHT22;1255;48.716;9.124;2023-05-14T13:43:27;22.00;99.90
2489;DHT22;1255;48.716;9.124;2023-05-14T13:45:53;21.50;99.90
2489;DHT22;1255;48.716;9.124;2023-05-14T13:48:20;21.10;99.90
2489;DHT22;1255;48.716;9.124;2023-05-14T13:50:47;20.80;99.90
2489;DHT22;1255;48.716;9.124;2023-05-14T13:53:16;20.50;99.90
2489;DHT22;1255;48.716;9.124;2023-05-14T13:55:42;20.20;99.90
2489;DHT22;1255;48.716;9.124;2023-05-14T13:58:09;19.70;99.90
2489;DHT22;1255;48.716;9.124;2023-05-14T14:00:36;19.30;99.90
2489;DHT22;1255;48.716;9.124;2023-05-14T14:03:03;19.00;99.90
2489;DHT22;1255;48.716;9.124;2023-05-14T14:05:30;18.90;99.90
2489;DHT22;1255;48.716;9.124;2023-05-14T14:07:56;18.70;99.90
2489;DHT22;1255;48.716;9.124;2023-05-14T14:10:25;18.60;99.90
2489;DHT22;1255;48.716;9.124;2023-05-14T14:12:52;18.40;99.90
2489;DHT22;1255;48.716;9.124;2023-05-14T14:15:20;18.40;99.90
2489;DHT22;1255;48.716;9.124;2023-05-14T14:17:46;18.30;99.90
2489;DHT22;1255;48.716;9.124;2023-05-14T14:20:13;18.30;99.90
2489;DHT22;1255;48.716;9.124;2023-05-14T14:22:42;18.30;99.90
2489;DHT22;1255;48.716;9.124;2023-05-14T14:25:09;18.40;99.90
2489;DHT22;1255;48.716;9.124;2023-05-14T14:27:38;18.30;99.90
2489;DHT22;1255;48.716;9.124;2023-05-14T14:30:06;18.30;99.90
2489;DHT22;1255;48.716;9.124;2023-05-14T14:32:34;18.10;99.90
2489;DHT22;1255;48.716;9.124;2023-05-14T14:35:00;18.00;99.90
2489;DHT22;1255;48.716;9.124;2023-05-14T14:37:27;17.90;99.90
2489;DHT22;1255;48.716;9.124;2023-05-14T14:39:54;17.90;99.90
2489;DHT22;1255;48.716;9.124;2023-05-14T14:42:20;17.80;99.90
2489;DHT22;1255;48.716;9.124;2023-05-14T14:44:48;17.70;99.90
2489;DHT22;1255;48.716;9.124;2023-05-14T14:47:15;17.60;99.90
2489;DHT22;1255;48.716;9.124;2023-05-14T14:49:42;17.60;99.90
2489;DHT22;1255;48.716;9.124;2023-05-14T14:52:08;17.70;99.90
2489;DHT22;1255;48.716;9.124;2023-05-14T14:54:35;17.70;99.90
2489;DHT22;1255;48.716;9.124;2023-05-14T14:57:02;17.80;99.90
2489;DHT22;1255;48.716;9.124;2023-05-14T14:59:29;17.90;99.90
2489;DHT22;1255;48.716;9.124;2023-05-14T15:01:57;17.90;99.90
2489;DHT22;1255;48.716;9.124;2023-05-14T15:04:24;18.00;99.90
2489;DHT22;1255;48.716;9.124;2023-05-14T15:06:50;17.90;99.90
2489;DHT22;1255;48.716;9.124;2023-05-14T15:09:17;17.90;99.90
2489;DHT22;1255;48.716;9.124;2023-05-14T15:11:44;17.80;99.90
2489;DHT22;1255;48.716;9.124;2023-05-14T15:14:11;17.70;99.90
2489;DHT22;1255;48.716;9.124;2023-05-14T15:16:38;17.60;99.90
2489;DHT22;1255;48.716;9.124;2023-05-14T15:19:06;17.50;99.90
2489;DHT22;1255;48.716;9.124;2023-05-14T15:21:32;17.40;99.90
2489;DHT22;1255;48.716;9.124;2023-05-14T15:24:02;17.40;99.90
2489;DHT22;1255;48.716;9.124;2023-05-14T15:26:29;17.40;99.90
2489;DHT22;1255;48.716;9.124;2023-05-14T15:28:56;17.50;99.90
2489;DHT22;1255;48.716;9.124;2023-05-14T15:31:23;17.50;99.90
2489;DHT22;1255;48.716;9.124;2023-05-14T15:33:50;17.60;99.90
2489;DHT22;1255;48.716;9.124;2023-05-14T15:36:18;17.70;99.90
2489;DHT22;1255;48.716;9.124;2023-05-14T15:38:45;17.80;99.90
2489;DHT22;1255;48.716;9.124;2023-05-14T15:41:12;17.90;99.90
2489;DHT22;1255;48.716;9.124;2023-05-14T15:43:38;18.30;99.90
2489;DHT22;1255;48.716;9.124;2023-05-14T15:46:05;18.60;99.90
2489;DHT22;1255;48.716;9.124;2023-05-14T15:48:32;19.00;99.90
2489;DHT22;1255;48.716;9.124;2023-05-14T15:50:58;19.20;99.90
2489;DHT22;1255;48.716;9.124;2023-05-14T15:53:26;18.90;99.90
2489;DHT22;1255;48.716;9.124;2023-05-14T15:55:53;18.50;99.90
2489;DHT22;1255;48.716;9.124;2023-05-14T15:58:20;18.30;99.90
2489;DHT22;1255;48.716;9.124;2023-05-14T16:00:47;18.00;99.90
2489;DHT22;1255;48.716;9.124;2023-05-14T16:03:15;17.80;99.90
2489;DHT22;1255;48.716;9.124;2023-05-14T16:05:42;17.50;99.90